Tiempo atmosférico en la estación meteorológica de Quinto, Zaragoza (205 m.)



Fecha
DESCASC
Temp. máxima en grados centígrados (hora)
DESCASC
Temp. mínima en grados centígrados (hora)
DESCASC
Temp. media en grados centígrados
DESCASC
Racha de viento máxima en m/sg (hora)
DESCASC
Velocidad máxima media en intervalos de 10 minutos(hora)
DESCASC
Precipitaciones diarias en mm
DESCASC
Precipitaciones de 00:00 a 06:00 en mm
DESCASC
Precipitaciones de 06:00 a 12:00 en mm
DESCASC
Precipitaciones de 12:00 a 18:00 en mm
DESCASC
Precipitaciones de 18:00 a 24:00 en mm
DESCASC
26-11-2020 13.2 (12:50) 3.7 (01:20) 8.4 4.72 (11:30) 3.06 (04:40) 1.2 0 0 1.2 0
25-11-2020 12.1 (15:20) 3.5 (00:00) 7.8 5.83 (15:10) 3.33 (15:10) 0 0 0 0 0
24-11-2020 11.9 (14:10) -2.6 (06:40) 4.6 3.61 (16:40) 2.5 (16:40) 0 0 0 0 0
23-11-2020 13.2 (17:00) -3.1 (07:20) 5 3.06 (18:00) 2.22 (18:10) 0 0 0 0 0
22-11-2020 13.1 (15:50) -3.4 (-00:0) 4.9 2.5 (07:00) 2.22 (19:20) 0 0 0 0 0
21-11-2020 14.4 (16:10) -0.3 (00:00) 7 4.72 (03:00) 2.78 (03:10) 0 0 0 0 0
20-11-2020 16 (14:50) 8.5 (00:00) 12.3 16.39 (09:30) 10.28 (09:50) 0 0 0 0 0
19-11-2020 20.5 (14:40) 4.7 (00:00) 12.6 16.67 (17:40) 11.11 (17:30) 0 0 0 0 0
18-11-2020 16.5 (16:10) 2.4 (00:00) 9.5 4.17 (13:10) 2.5 (12:40) 0 0 0 0 0
17-11-2020 18.6 (15:50) 3.9 (00:00) 11.3 3.33 (02:20) 2.5 (00:50) 0 0 0 0 0
16-11-2020 18.1 (14:00) 8.9 (00:00) 13.5 14.17 (13:10) 8.61 (13:10) 0.2 0.2 0 0 0
15-11-2020 18 (16:10) 8.5 (00:00) 13.3 3.33 (14:30) 1.67 (14:30) 0.2 0 0.2 0 0
14-11-2020 13.2 (15:50) 5.2 (00:00) 9.2 4.44 (16:00) 2.5 (16:40) 0.4 0.2 0 0 0.2
13-11-2020 13.4 (15:40) 5.3 (00:00) 9.3 3.61 (00:10) 2.22 (23:30) 0 0 0 0 0
12-11-2020 11.6 (14:20) 8.8 (00:00) 10.2 4.17 (20:20) 2.22 (02:10) 0 0 0 0 0
11-11-2020 11.9 (16:10) 5.9 (00:00) 8.9 3.61 (22:00) 2.22 (19:00) 0.2 0 0.2 0 0
10-11-2020 18.4 (16:00) 4.9 (00:00) 11.6 6.39 (14:40) 3.89 (14:10) 0 0 0 0 0
09-11-2020 17.2 (16:40) 5.8 (00:00) 11.5 4.17 (07:00) 2.78 (19:30) 0 0 0 0 0
08-11-2020 19.1 (15:20) 6.3 (00:00) 12.7 5.28 (14:50) 3.33 (16:00) 0 0 0 0 0
07-11-2020 17.6 (13:50) 12.1 (00:00) 14.9 12.78 (06:40) 7.22 (05:50) 11.6 0 10 1.6 0
06-11-2020 19.7 (14:40) 11.7 (00:00) 15.7 11.67 (13:20) 7.22 (12:30) 0 0 0 0 0
05-11-2020 12.3 (15:00) 9.2 (00:00) 10.8 3.61 (09:00) 2.5 (15:50) 4.4 0 0 0.2 4.2
04-11-2020 11.5 (00:00) 9.1 (00:00) 10.3 12.5 (01:40) 7.5 (00:50) 2.8 0.4 0.4 2 0
03-11-2020 16 (00:00) 11.5 (00:00) 13.8 14.72 (21:20) 8.61 (11:50) 0.4 0.4 0 0 0
02-11-2020 25.7 (16:00) 6.4 (00:00) 16.1 4.17 (19:30) 2.5 (19:30) 0 0 0 0 0
01-11-2020 23.9 (15:40) 4.8 (00:00) 14.3 5.83 (14:40) 3.89 (15:10) 0 0 0 0 0
31-10-2020 23.7 (16:10) 2.8 (00:00) 13.3 3.89 (19:30) 2.5 (19:40) 0 0 0 0 0
30-10-2020 22.9 (16:40) 3.4 (00:00) 13.1 3.61 (12:00) 2.5 (19:20) 0 0 0 0 0

Gráficas

Temp. máximas Temp. mínimas Temp. medias Precipitaciones Rachas de viento máximas Velocidades máximas media en intervalos de 10 minutos

Datos horarios

Fecha y hora oficial Temperatura (ºC) Velocidad del viento (km/h) Dirección del viento Racha (km/h) Dirección de racha Precipitación (mm) Presión (hPa) Tendencia (hPa) Humedad (%)
2020-11-28 23:00:00 10.4 3 Este 6 Este 0 -- -- 91
2020-11-28 22:00:00 10.8 3 Sudeste 10 Sudoeste 0 -- -- 89
2020-11-28 21:00:00 10.8 8 Sudoeste 12 Sudoeste 0 -- -- 89
2020-11-28 20:00:00 11.2 5 Sudoeste 12 Sur 0 -- -- 86
2020-11-28 19:00:00 11.1 8 Sur 12 Sudoeste 0 -- -- 86
2020-11-28 18:00:00 12 6 Sudeste 9 Sudeste 0 -- -- 83
2020-11-28 17:00:00 13.5 5 Sudeste 18 Este 0 -- -- 76
2020-11-28 16:00:00 15 4 Nordeste 8 Nordeste 0 -- -- 69
2020-11-28 15:00:00 14.9 4 Norte 9 Norte 0 -- -- 72
2020-11-28 14:00:00 14.3 6 Noroeste 14 Noroeste 0 -- -- 72
2020-11-28 13:00:00 13.3 12 Oeste 23 Noroeste 0 -- -- 79
2020-11-28 12:00:00 11.9 14 Noroeste 28 Noroeste 0 -- -- 85
2020-11-28 11:00:00 10.3 13 Oeste 22 Oeste 0 -- -- 94
2020-11-28 10:00:00 9 4 Noroeste 6 Noroeste 0 -- -- 95
2020-11-28 09:00:00 8.6 4 Oeste 11 Oeste 0 -- -- 95
2020-11-28 08:00:00 8.7 9 Noroeste 15 Noroeste 0 -- -- 95
2020-11-28 07:00:00 8.8 9 Noroeste 14 Oeste 0 -- -- 94
2020-11-28 06:00:00 9.3 9 Sudoeste 14 Sudoeste 0 -- -- 93
2020-11-28 05:00:00 9.9 9 Sudoeste 15 Sudoeste 0 -- -- 91
2020-11-28 04:00:00 10.7 6 Sur 16 Este 0 -- -- 90
2020-11-28 03:00:00 11.2 8 Nordeste 18 Nordeste 0.4 -- -- 90
2020-11-28 02:00:00 11.1 4 Sur 14 Nordeste 0.8 -- -- 92
2020-11-28 01:00:00 11.5 7 Este 12 Este 1.2 -- -- 89
2020-11-28 00:00:00 11.9 3 Sudeste 15 Este 0.6 -- -- 87
2020-11-27 23:00:00 12.2 5 Este 12 Este 0.2 -- -- 85
2020-11-27 22:00:00 12.3 2 Este 5 Este 0 -- -- 82
2020-11-27 21:00:00 12.5 2 Sudeste 17 Este 0 -- -- 82
2020-11-27 20:00:00 13 7 Nordeste 19 Nordeste 0 -- -- 80
2020-11-27 19:00:00 13.5 6 Nordeste 15 Nordeste 0 -- -- 78
2020-11-27 18:00:00 14.1 6 Nordeste 18 Nordeste 0 -- -- 77
2020-11-27 17:00:00 15.3 10 Nordeste 27 Este 0 -- -- 74
2020-11-27 16:00:00 16 10 Nordeste 28 Nordeste 0 -- -- 73
2020-11-27 15:00:00 16.7 14 Nordeste 33 Nordeste 0 -- -- 71
2020-11-27 14:00:00 15.8 8 Nordeste 20 Este 0 -- -- 76
2020-11-27 13:00:00 14.5 6 Nordeste 19 Nordeste 0 -- -- 81
2020-11-27 12:00:00 14.3 5 Este 19 Este 0 -- -- 82
2020-11-27 11:00:00 13.3 7 Este 16 Este 0 -- -- 84
2020-11-27 10:00:00 12.5 0 Calma 13 Nordeste 0 -- -- 87
2020-11-27 09:00:00 12.3 4 Nordeste 17 Este 0 -- -- 86
2020-11-27 08:00:00 12.2 6 Este 17 Nordeste 0 -- -- 87
2020-11-27 07:00:00 12.1 6 Este 13 Este 0 -- -- 88
2020-11-27 06:00:00 12.3 4 Nordeste 19 Nordeste 0 -- -- 88
2020-11-27 05:00:00 12.6 10 Este 21 Nordeste 0 -- -- 89
2020-11-27 04:00:00 12.3 5 Este 18 Nordeste 0 -- -- 92
2020-11-27 03:00:00 11.9 4 Este 16 Este 0.2 -- -- 92
2020-11-27 02:00:00 12.3 6 Este 13 Este 0.6 -- -- 92
2020-11-27 01:00:00 12.2 6 Sudeste 12 Este 0 -- -- 90
2020-11-27 00:00:00 12.3 6 Sudeste 10 Sudeste 0 -- -- 91
2020-11-26 23:00:00 12.2 7 Sudeste 15 Este 0 -- -- 93
2020-11-26 22:00:00 11.4 6 Este 13 Este 0 -- -- 96
2020-11-26 21:00:00 10.3 4 Sur 6 Sudoeste 0 -- -- 95
2020-11-26 20:00:00 10.9 5 Sudoeste 14 Sudoeste 0 -- -- 94
2020-11-26 19:00:00 11.2 5 Sur 14 Sudoeste 0 -- -- 93
2020-11-26 18:00:00 11.9 4 Sudoeste 10 Sur 0 -- -- 92
2020-11-26 17:00:00 12.8 4 Sudeste 13 Sudeste 0 -- -- 91
2020-11-26 16:00:00 13 6 Sudeste 12 Sudeste 0 -- -- 90
2020-11-26 15:00:00 13.2 2 Sudeste 9 Sudeste 0 -- -- 90
2020-11-26 14:00:00 12.1 4 Sudeste 10 Sudeste 1.2 -- -- 92
2020-11-26 13:00:00 13.2 7 Este 10 Este 0 -- -- 83
2020-11-26 12:00:00 11.8 4 Sudeste 17 Sur 0 -- -- 89
2020-11-26 11:00:00 10 6 Sudeste 10 Sudeste 0 -- -- 97
2020-11-26 10:00:00 8 3 Este 7 Este 0 -- -- 98
2020-11-26 09:00:00 6.4 3 Sudeste 8 Nordeste 0 -- -- 97
2020-11-26 08:00:00 7.2 5 Sudoeste 9 Sudoeste 0 -- -- 98
2020-11-26 07:00:00 6.9 8 Sur 13 Sudoeste 0 -- -- 98
2020-11-26 06:00:00 6.2 8 Sudoeste 11 Sudoeste 0 -- -- 98
2020-11-26 05:00:00 4.4 9 Sudoeste 14 Sudoeste 0 -- -- 96
2020-11-26 04:00:00 4 5 Sudoeste 10 Sudoeste 0 -- -- 96
2020-11-26 03:00:00 4 8 Sur 15 Sudoeste 0 -- -- 96
2020-11-26 02:00:00 4 5 Sudoeste 9 Sur 0 -- -- 94
2020-11-26 01:00:00 4.2 6 Sur 8 Sur 0 -- -- 93
2020-11-26 00:00:00 4.8 4 Sur 5 Sur 0 -- -- 91
2020-11-25 23:00:00 5.8 2 Sudoeste 4 Sudoeste 0 -- -- 86
2020-11-25 22:00:00 7.6 3 Sudeste 8 Sudeste 0 -- -- 85
2020-11-25 21:00:00 8.6 4 Sudeste 8 Sudeste 0 -- -- 86
2020-11-25 20:00:00 9.3 4 Este 6 Este 0 -- -- 87
2020-11-25 19:00:00 9.7 0 Calma 5 Este 0 -- -- 85
2020-11-25 18:00:00 10.3 3 Nordeste 10 Sudeste 0 -- -- 82
2020-11-25 17:00:00 11.1 5 Este 12 Sudeste 0 -- -- 81
2020-11-25 16:00:00 12.1 3 Este 21 Sur 0 -- -- 78
2020-11-25 15:00:00 11.5 10 Sudeste 19 Sudeste 0 -- -- 79
2020-11-25 14:00:00 10.7 9 Sudeste 13 Sudeste 0 -- -- 81
2020-11-25 13:00:00 9.2 9 Este 18 Este 0 -- -- 86
2020-11-25 12:00:00 8.5 9 Sudeste 13 Este 0 -- -- 88
2020-11-25 11:00:00 7.6 6 Sudeste 10 Sudeste 0 -- -- 91
2020-11-25 10:00:00 6.4 6 Este 11 Este 0 -- -- 94
2020-11-25 09:00:00 5.9 6 Este 13 Este 0 -- -- 94
2020-11-25 08:00:00 5.8 6 Este 10 Este 0 -- -- 93
2020-11-25 07:00:00 5.6 5 Sudeste 9 Este 0 -- -- 93
2020-11-25 06:00:00 5.2 8 Este 12 Este 0 -- -- 93
2020-11-25 05:00:00 5.4 4 Sudeste 9 Este 0 -- -- 92
2020-11-25 04:00:00 5.3 6 Este 8 Este 0 -- -- 89
2020-11-25 03:00:00 5.3 3 Sudeste 6 Este 0 -- -- 89
2020-11-25 02:00:00 5.2 3 Sudoeste 5 Sur 0 -- -- 90
2020-11-25 01:00:00 4.5 3 Sur 7 Sudoeste 0 -- -- 92
2020-11-25 00:00:00 3.5 0 Calma 7 Oeste 0 -- -- 93
2020-11-24 23:00:00 2.1 3 Sudoeste 10 Sudoeste 0 -- -- 91
2020-11-24 22:00:00 2.6 8 Sudoeste 10 Sudoeste 0 -- -- 88
2020-11-24 21:00:00 4.9 5 Este 7 Este 0 -- -- 88
2020-11-24 20:00:00 5.2 0 Calma 6 Sudoeste 0 -- -- 85
2020-11-24 19:00:00 7.4 0 Calma 8 Sudeste 0 -- -- 79
2020-11-24 18:00:00 8.6 8 Sudeste 12 Sudeste 0 -- -- 76
2020-11-24 17:00:00 10 8 Sudeste 13 Sudeste 0 -- -- 73
2020-11-24 16:00:00 11.5 6 Este 11 Sudeste 0 -- -- 68
2020-11-24 15:00:00 11.9 6 Sudeste 10 Sudeste 0 -- -- 66
2020-11-24 14:00:00 11.7 5 Sudeste 8 Este 0 -- -- 66
2020-11-24 13:00:00 9.8 5 Este 10 Este 0 -- -- 72
2020-11-24 12:00:00 7.4 4 Sudeste 9 Este 0 -- -- 77
2020-11-24 11:00:00 4.7 5 Este 8 Este 0 -- -- 85
2020-11-24 10:00:00 1.5 2 Sudeste 4 Este 0 -- -- 96
2020-11-24 09:00:00 -1.4 0 Calma 3 Sudoeste 0 -- -- 96
2020-11-24 08:00:00 -2.4 2 Sur 4 Sur 0 -- -- 94
2020-11-24 07:00:00 -2.3 2 Sudeste 5 Sudoeste 0 -- -- 95
2020-11-24 06:00:00 -1.8 2 Sur -- -- 0 -- -- 93
2020-11-24 05:00:00 -1.9 8 Sudoeste 10 Sudoeste 0 -- -- 93
2020-11-24 04:00:00 -1.2 2 Sudoeste 4 Sudoeste 0 -- -- 92
2020-11-24 03:00:00 -1.3 3 Sudoeste 6 Sudoeste 0 -- -- 91
2020-11-24 02:00:00 -0.8 3 Sudoeste 7 Sudoeste 0 -- -- 90
2020-11-24 01:00:00 0.1 6 Sudoeste 7 Sudoeste 0 -- -- 89
2020-11-24 00:00:00 1.3 0 Calma 8 Sudoeste 0 -- -- 87
2020-11-23 23:00:00 1.4 7 Sudoeste 9 Sudoeste 0 -- -- 87
2020-11-23 22:00:00 1.9 4 Sudoeste 8 Sudoeste 0 -- -- 85
2020-11-23 21:00:00 3 5 Sudoeste 8 Sudoeste 0 -- -- 82
2020-11-23 20:00:00 4.5 5 Sudoeste 8 Sudoeste 0 -- -- 76
2020-11-23 19:00:00 7.5 3 Este 9 Sudeste 0 -- -- 69
2020-11-23 18:00:00 9.2 7 Sudeste 11 Sudeste 0 -- -- 62
2020-11-23 17:00:00 13.2 0 Calma 6 Este 0 -- -- 51
2020-11-23 16:00:00 12.9 3 Este 5 Nordeste 0 -- -- 52
2020-11-23 15:00:00 12.3 3 Nordeste 8 Noroeste 0 -- -- 54
2020-11-23 14:00:00 11.2 3 Noroeste 7 Nordeste 0 -- -- 57
2020-11-23 13:00:00 8.7 3 Norte 6 Norte 0 -- -- 68
2020-11-23 12:00:00 5.9 2 Noroeste 10 Nordeste 0 -- -- 79
2020-11-23 11:00:00 3.8 4 Este 6 Nordeste 0 -- -- 87
2020-11-23 10:00:00 1.5 2 Sur 5 Sudoeste 0 -- -- 96
2020-11-23 09:00:00 -1.9 5 Sudoeste 6 Sudoeste 0 -- -- 95
2020-11-23 08:00:00 -2.9 0 Calma 5 Sudoeste 0 -- -- 94
2020-11-23 07:00:00 -2.9 4 Sudoeste 6 Sudoeste 0 -- -- 93
2020-11-23 06:00:00 -2.7 4 Sudoeste 6 Sudoeste 0 -- -- 92
2020-11-23 05:00:00 -2.1 0 Calma 6 Sudoeste 0 -- -- 92
2020-11-23 04:00:00 -1.9 5 Sudoeste 6 Sudoeste 0 -- -- 91
2020-11-23 03:00:00 -1.1 2 Sudoeste 4 Sudoeste 0 -- -- 91
2020-11-23 02:00:00 -1 0 Calma 6 Sudoeste 0 -- -- 89
2020-11-23 01:00:00 -0.3 5 Sudoeste 6 Sudoeste 0 -- -- 88
2020-11-23 00:00:00 0.4 3 Sudeste 5 Oeste 0 -- -- 89
2020-11-22 23:00:00 0.8 4 Oeste 6 Oeste 0 -- -- 85
2020-11-22 22:00:00 2 5 Oeste 7 Oeste 0 -- -- 84
2020-11-22 21:00:00 2.8 6 Oeste 8 Oeste 0 -- -- 82
2020-11-22 20:00:00 3.7 8 Sudoeste 9 Sudoeste 0 -- -- 79
2020-11-22 19:00:00 6 2 Oeste 3 Oeste 0 -- -- 73
2020-11-22 18:00:00 9.8 0 Calma -- -- 0 -- -- 64
2020-11-22 17:00:00 12.4 3 Este 5 Este 0 -- -- 58
2020-11-22 16:00:00 12.8 2 Nordeste 5 Este 0 -- -- 56
2020-11-22 15:00:00 12.1 4 Este 8 Nordeste 0 -- -- 59
2020-11-22 14:00:00 10.5 3 Norte 9 Oeste 0 -- -- 61
2020-11-22 13:00:00 8.5 4 Noroeste 9 Noroeste 0 -- -- 67
2020-11-22 12:00:00 5.8 5 Noroeste 9 Noroeste 0 -- -- 72
2020-11-22 11:00:00 2.9 5 Norte 8 Noroeste 0 -- -- 85
2020-11-22 10:00:00 0.5 3 Norte 8 Este 0 -- -- 89
2020-11-22 09:00:00 -1.6 3 Sur 6 Sur 0 -- -- 93
2020-11-22 08:00:00 -3.2 0 Calma 7 Sudoeste 0 -- -- 92
2020-11-22 07:00:00 -3 7 Sudoeste 9 Sudoeste 0 -- -- 91
2020-11-22 06:00:00 -2.9 0 Calma 6 Sudoeste 0 -- -- 90
2020-11-22 05:00:00 -2.4 6 Sudoeste 9 Sudoeste 0 -- -- 90
2020-11-22 04:00:00 -1.4 4 Sudeste 5 Este 0 -- -- 91
2020-11-22 03:00:00 -0.8 0 Calma 6 Noroeste 0 -- -- 90
2020-11-22 02:00:00 -0.9 4 Oeste 9 Sudoeste 0 -- -- 87
2020-11-22 01:00:00 -0.7 4 Sudoeste 8 Sudoeste 0 -- -- 85
2020-11-22 00:00:00 -0.3 6 Sudoeste 8 Sudoeste 0 -- -- 84
2020-11-21 23:00:00 1 3 Sudeste 9 Sudoeste 0 -- -- 81
2020-11-21 22:00:00 1.7 7 Sudoeste 10 Sudoeste 0 -- -- 77
2020-11-21 21:00:00 3.2 0 Calma 9 Este 0 -- -- 75
2020-11-21 20:00:00 4.9 5 Sudeste 9 Este 0 -- -- 69
2020-11-21 19:00:00 6.4 5 Este 8 Este 0 -- -- 64
2020-11-21 18:00:00 10.2 3 Sur 4 Sudoeste 0 -- -- 49
2020-11-21 17:00:00 14.2 0 Calma 6 Este 0 -- -- 38
2020-11-21 16:00:00 14.3 3 Sudeste 8 Sudeste 0 -- -- 37
2020-11-21 15:00:00 13.9 2 Norte 9 Norte 0 -- -- 40
2020-11-21 14:00:00 12.7 4 Norte 13 Noroeste 0 -- -- 43
2020-11-21 13:00:00 11.1 5 Noroeste 14 Noroeste 0 -- -- 50
2020-11-21 12:00:00 9.5 4 Este 10 Noroeste 0 -- -- 60
2020-11-21 11:00:00 6 4 Norte 8 Norte 0 -- -- 69
2020-11-21 10:00:00 3.5 3 Norte 6 Noroeste 0 -- -- 78
2020-11-21 09:00:00 0.5 2 Sudoeste 4 Oeste 0 -- -- 87
2020-11-21 08:00:00 -0.3 0 Calma 12 Este 0 -- -- 85
2020-11-21 07:00:00 0.3 2 Sur 10 Este 0 -- -- 83
2020-11-21 06:00:00 1.2 2 Este 8 Este 0 -- -- 80
2020-11-21 05:00:00 2.7 3 Sudoeste 12 Sudoeste 0 -- -- 75
2020-11-21 04:00:00 4 4 Sudeste 15 Sudeste 0 -- -- 71
2020-11-21 03:00:00 5.3 10 Este 17 Sudeste 0 -- -- 67
2020-11-21 02:00:00 6.8 3 Nordeste 15 Norte 0 -- -- 59
2020-11-21 01:00:00 7.5 4 Noroeste 14 Noroeste 0 -- -- 55
2020-11-21 00:00:00 8.5 9 Noroeste 18 Oeste 0 -- -- 50
2020-11-20 23:00:00 9.2 11 Oeste 25 Noroeste 0 -- -- 48
2020-11-20 22:00:00 10.2 18 Noroeste 39 Noroeste 0 -- -- 46
2020-11-20 21:00:00 10.7 24 Oeste 45 Noroeste 0 -- -- 46
2020-11-20 20:00:00 11.1 27 Oeste 46 Oeste 0 -- -- 41
2020-11-20 19:00:00 12.2 26 Oeste 46 Noroeste 0 -- -- 39
2020-11-20 18:00:00 13.1 24 Noroeste 45 Noroeste 0 -- -- 38
2020-11-20 17:00:00 14.5 24 Noroeste 53 Oeste 0 -- -- 38
2020-11-20 16:00:00 15.5 28 Noroeste 46 Oeste 0 -- -- 37
2020-11-20 15:00:00 15.9 28 Noroeste 45 Noroeste 0 -- -- 38
2020-11-20 14:00:00 15.7 29 Oeste 47 Noroeste 0 -- -- 41
2020-11-20 13:00:00 14.8 33 Noroeste 53 Oeste 0 -- -- 45
2020-11-20 12:00:00 13.9 34 Noroeste 57 Noroeste 0 -- -- 52
2020-11-20 11:00:00 12.8 35 Noroeste 58 Noroeste 0 -- -- 58
2020-11-20 10:00:00 11.8 36 Noroeste 59 Oeste 0 -- -- 62
2020-11-20 09:00:00 10.8 32 Noroeste 53 Noroeste 0 -- -- 65
2020-11-20 08:00:00 10 25 Noroeste 43 Noroeste 0 -- -- 66
2020-11-20 07:00:00 10 20 Noroeste 49 Oeste 0 -- -- 66
2020-11-20 06:00:00 10.2 30 Noroeste 54 Oeste 0 -- -- 66
2020-11-20 05:00:00 10.4 32 Noroeste 55 Oeste 0 -- -- 65
2020-11-20 04:00:00 10.5 26 Noroeste 53 Oeste 0 -- -- 65
2020-11-20 03:00:00 10.4 26 Oeste 54 Oeste 0 -- -- 65
2020-11-20 02:00:00 10.9 32 Noroeste 58 Oeste 0 -- -- 66
2020-11-20 01:00:00 10.9 30 Oeste 51 Oeste 0 -- -- 65
2020-11-20 00:00:00 11.1 26 Noroeste 50 Oeste 0 -- -- 69
2020-11-19 23:00:00 11.5 28 Oeste 51 Oeste 0 -- -- 69
2020-11-19 22:00:00 12.3 31 Oeste 49 Oeste 0 -- -- 65
2020-11-19 21:00:00 13.2 23 Oeste 52 Noroeste 0 -- -- 64
2020-11-19 20:00:00 13.7 23 Oeste 51 Noroeste 0 -- -- 66
2020-11-19 19:00:00 15.1 32 Oeste 51 Oeste 0 -- -- 66
2020-11-19 18:00:00 16.8 36 Noroeste 60 Noroeste 0 -- -- 61
2020-11-19 17:00:00 18.9 28 Oeste 47 Oeste 0 -- -- 58
2020-11-19 16:00:00 20.1 34 Noroeste 54 Noroeste 0 -- -- 58
2020-11-19 15:00:00 20.5 35 Noroeste 58 Noroeste 0 -- -- 61
2020-11-19 14:00:00 19 15 Noroeste 36 Noroeste 0 -- -- 69
2020-11-19 13:00:00 14.8 3 Nordeste 10 Nordeste 0 -- -- 77
2020-11-19 12:00:00 11 4 Nordeste 7 Este 0 -- -- 98
2020-11-19 11:00:00 7.9 2 Sur 4 Sudeste 0 -- -- 99
2020-11-19 10:00:00 6.3 3 Sudeste 6 Este 0 -- -- 98
2020-11-19 09:00:00 5.5 3 Sudeste 6 Este 0 -- -- 98
2020-11-19 08:00:00 5.2 3 Este 6 Este 0 -- -- 97
2020-11-19 07:00:00 5.1 2 Sur 6 Este 0 -- -- 97
2020-11-19 06:00:00 4.9 4 Este 7 Nordeste 0 -- -- 97
2020-11-19 05:00:00 4.7 3 Sur 4 Sudoeste 0 -- -- 97
2020-11-19 04:00:00 5.3 0 Calma 6 Sudoeste 0 -- -- 96
2020-11-19 03:00:00 5.1 6 Sudoeste 7 Sudoeste 0 -- -- 96
2020-11-19 02:00:00 5.4 5 Sudoeste 6 Sudoeste 0 -- -- 96
2020-11-19 01:00:00 5.8 4 Oeste 9 Sudoeste 0 -- -- 95
2020-11-19 00:00:00 6.8 0 Calma 5 Sudeste 0 -- -- 95
2020-11-18 23:00:00 7 3 Sudeste 11 Sudoeste 0 -- -- 94
2020-11-18 22:00:00 7.5 9 Sudoeste 14 Sudoeste 0 -- -- 93
2020-11-18 21:00:00 8.1 4 Sudoeste 9 Sudoeste 0 -- -- 92
2020-11-18 20:00:00 9.4 3 Sudoeste 8 Este 0 -- -- 88
2020-11-18 19:00:00 11.3 0 Calma 4 Este 0 -- -- 84
2020-11-18 18:00:00 13.9 0 Calma 3 Este 0 -- -- 81
2020-11-18 17:00:00 15.7 3 Nordeste 5 Nordeste 0 -- -- 75
2020-11-18 16:00:00 16.2 3 Oeste 6 Sudoeste 0 -- -- 71
2020-11-18 15:00:00 14.9 3 Sudoeste 9 Sudeste 0 -- -- 76
2020-11-18 14:00:00 12.8 6 Sur 15 Nordeste 0 -- -- 85
2020-11-18 13:00:00 10.5 7 Sudeste 13 Sur 0 -- -- 96
2020-11-18 12:00:00 9 6 Sur 10 Sudeste 0 -- -- 97
2020-11-18 11:00:00 8.5 5 Sudeste 8 Este 0 -- -- 97
2020-11-18 10:00:00 7.1 4 Sudeste 9 Este 0 -- -- 97
2020-11-18 09:00:00 5.1 0 Calma 0 Calma 0 -- -- 98
2020-11-18 08:00:00 2.5 0 Calma 3 Nordeste 0 -- -- 95
2020-11-18 07:00:00 2.9 0 Calma 6 Sudoeste 0 -- -- 95
2020-11-18 06:00:00 3.5 3 Este 5 Sudoeste 0 -- -- 95
2020-11-18 05:00:00 3.6 3 Sudoeste 6 Sudoeste 0 -- -- 95
2020-11-18 04:00:00 4.3 0 Calma 4 Sudoeste 0 -- -- 94
2020-11-18 03:00:00 5 3 Sudeste 5 Este 0 -- -- 94
2020-11-18 02:00:00 5.2 2 Sudoeste 9 Sudoeste 0 -- -- 93
2020-11-18 01:00:00 5.9 3 Sudeste 6 Este 0 -- -- 92
2020-11-18 00:00:00 6.3 3 Sudoeste 9 Sudoeste 0 -- -- 91
2020-11-17 23:00:00 8 3 Sur 9 Este 0 -- -- 88
2020-11-17 22:00:00 8.4 3 Este 9 Sudoeste 0 -- -- 88
2020-11-17 21:00:00 8.9 6 Sudoeste 9 Sur 0 -- -- 86
2020-11-17 20:00:00 11.7 6 Este 10 Este 0 -- -- 79
2020-11-17 19:00:00 13.5 6 Sudeste 11 Sudeste 0 -- -- 73
2020-11-17 18:00:00 15.1 2 Sudeste 6 Este 0 -- -- 66
2020-11-17 17:00:00 18.2 3 Este 8 Este 0 -- -- 55
2020-11-17 16:00:00 18.6 4 Sudeste 9 Sudoeste 0 -- -- 54
2020-11-17 15:00:00 18 4 Sudoeste 8 Sur 0 -- -- 56
2020-11-17 14:00:00 16.6 3 Oeste 11 Sudeste 0 -- -- 60
2020-11-17 13:00:00 15 4 Este 8 Este 0 -- -- 66
2020-11-17 12:00:00 12.8 3 Norte 8 Noroeste 0 -- -- 74
2020-11-17 11:00:00 11 2 Norte 8 Norte 0 -- -- 79
2020-11-17 10:00:00 9.1 2 Nordeste 5 Este 0 -- -- 89
2020-11-17 09:00:00 6 7 Este 10 Este 0 -- -- 95
2020-11-17 08:00:00 3.9 4 Sudeste 6 Sudeste 0 -- -- 93
2020-11-17 07:00:00 4.4 3 Oeste 6 Sudoeste 0 -- -- 93
2020-11-17 06:00:00 5.2 4 Oeste 8 Oeste 0 -- -- 92
2020-11-17 05:00:00 5.4 2 Sudoeste 6 Sur 0 -- -- 90
2020-11-17 04:00:00 6.8 0 Calma 11 Sudoeste 0 -- -- 88
2020-11-17 03:00:00 7.6 6 Sudoeste 12 Sudoeste 0 -- -- 86
2020-11-17 02:00:00 7.7 8 Sudoeste 10 Sudoeste 0 -- -- 85
2020-11-17 01:00:00 8.5 6 Sudoeste 10 Sudoeste 0 -- -- 82
2020-11-17 00:00:00 9.2 6 Sudoeste 13 Oeste 0 -- -- 80
2020-11-16 23:00:00 9 9 Sudoeste 14 Sudoeste 0 -- -- 82
2020-11-16 22:00:00 10.9 8 Sudoeste 20 Oeste 0 -- -- 74
2020-11-16 21:00:00 12.5 12 Sudoeste 19 Oeste 0 -- -- 68
2020-11-16 20:00:00 13.1 13 Oeste 19 Sudoeste 0 -- -- 68
2020-11-16 19:00:00 13.4 13 Sur 22 Oeste 0 -- -- 70
2020-11-16 18:00:00 15.2 14 Oeste 25 Noroeste 0 -- -- 63
2020-11-16 17:00:00 16.6 19 Oeste 37 Oeste 0 -- -- 59
2020-11-16 16:00:00 17.6 25 Oeste 45 Noroeste 0 -- -- 57
2020-11-16 15:00:00 18.1 26 Oeste 43 Oeste 0 -- -- 54
2020-11-16 14:00:00 18.1 26 Noroeste 51 Noroeste 0 -- -- 57
2020-11-16 13:00:00 17.8 27 Oeste 50 Oeste 0 -- -- 59
2020-11-16 12:00:00 17.5 27 Noroeste 45 Oeste 0 -- -- 61
2020-11-16 11:00:00 16.6 26 Oeste 41 Oeste 0 -- -- 65
2020-11-16 10:00:00 15.3 19 Oeste 36 Oeste 0 -- -- 72
2020-11-16 09:00:00 14 21 Oeste 36 Oeste 0 -- -- 78
2020-11-16 08:00:00 13.2 18 Oeste 28 Oeste 0 -- -- 80
2020-11-16 07:00:00 13.2 15 Sudoeste 23 Sudoeste 0 -- -- 82
2020-11-16 06:00:00 13.9 3 Oeste 23 Oeste 0 -- -- 84
2020-11-16 05:00:00 14.4 12 Noroeste 35 Noroeste 0 -- -- 85
2020-11-16 04:00:00 14.7 21 Noroeste 33 Noroeste 0 -- -- 89
2020-11-16 03:00:00 14.2 6 Norte 14 Noroeste 0 -- -- 91
2020-11-16 02:00:00 13.7 2 Sudeste 5 Nordeste 0 -- -- 92
2020-11-16 01:00:00 14.5 3 Sur 9 Noroeste 0.2 -- -- 92
2020-11-16 00:00:00 14.2 3 Oeste 10 Norte 0 -- -- 92
2020-11-15 23:00:00 14.1 0 Calma 9 Norte 0 -- -- 91
2020-11-15 22:00:00 14.3 0 Calma 5 Sur 0 -- -- 89
2020-11-15 21:00:00 14.3 0 Calma 5 Sudoeste 0 -- -- 89
2020-11-15 20:00:00 14.7 2 Sudoeste 4 Sudoeste 0 -- -- 86
2020-11-15 19:00:00 15.7 2 Oeste 10 Sudeste 0 -- -- 82
2020-11-15 18:00:00 16.9 4 Sudeste 10 Sudeste 0 -- -- 76
2020-11-15 17:00:00 17.7 4 Sudeste 9 Sudeste 0 -- -- 78
2020-11-15 16:00:00 17.9 4 Sudeste 8 Sudeste 0 -- -- 76
2020-11-15 15:00:00 17.7 5 Este 12 Este 0 -- -- 79
2020-11-15 14:00:00 15.1 5 Este 9 Este 0 -- -- 94
2020-11-15 13:00:00 12.7 4 Este 10 Sudeste 0 -- -- 98
2020-11-15 12:00:00 11.4 5 Sudeste 11 Nordeste 0 -- -- 99
2020-11-15 11:00:00 10.9 4 Este 8 Este 0 -- -- 98
2020-11-15 10:00:00 10.1 2 Sur 8 Este 0 -- -- 98
2020-11-15 09:00:00 9.5 3 Este 6 Sudeste 0 -- -- 98
2020-11-15 08:00:00 9.3 0 Calma 5 Este 0 -- -- 98
2020-11-15 07:00:00 9 0 Calma 5 Oeste 0.2 -- -- 98
2020-11-15 06:00:00 8.7 3 Oeste 6 Sudoeste 0 -- -- 97
2020-11-15 05:00:00 8.5 5 Sur 8 Sur 0 -- -- 97
2020-11-15 04:00:00 9.2 3 Sudeste 6 Sudeste 0 -- -- 97
2020-11-15 03:00:00 8.7 0 Calma 7 Sudoeste 0 -- -- 96
2020-11-15 02:00:00 9.5 4 Sudoeste 7 Sudoeste 0 -- -- 95
2020-11-15 01:00:00 10.8 4 Sudoeste 4 Sur 0 -- -- 95
2020-11-15 00:00:00 11.7 0 Calma 4 Sur 0 -- -- 96
2020-11-14 23:00:00 11.7 2 Este 4 Este 0 -- -- 96
2020-11-14 22:00:00 11.8 0 Calma 6 Sur 0 -- -- 95
2020-11-14 21:00:00 11.9 4 Sur 6 Este 0 -- -- 95
2020-11-14 20:00:00 12.1 3 Sudeste 5 Sudeste 0 -- -- 94
2020-11-14 19:00:00 12.3 3 Este 4 Nordeste 0.2 -- -- 93
2020-11-14 18:00:00 12.7 2 Sudoeste 9 Sudoeste 0 -- -- 91
2020-11-14 17:00:00 12.9 8 Sudoeste 14 Sudoeste 0 -- -- 90
2020-11-14 16:00:00 13.2 9 Sudoeste 16 Sudoeste 0 -- -- 89
2020-11-14 15:00:00 13 8 Sur 11 Sur 0 -- -- 90
2020-11-14 14:00:00 12.5 6 Sudoeste 10 Sur 0 -- -- 94
2020-11-14 13:00:00 11.7 3 Sur 7 Sudeste 0 -- -- 97
2020-11-14 12:00:00 10.9 0 Calma 8 Este 0 -- -- 98
2020-11-14 11:00:00 10.5 5 Este 6 Sudeste 0 -- -- 98
2020-11-14 10:00:00 9.8 4 Este 9 Este 0 -- -- 98
2020-11-14 09:00:00 9 5 Este 9 Este 0 -- -- 98
2020-11-14 08:00:00 8.4 4 Sudeste 7 Este 0 -- -- 98
2020-11-14 07:00:00 7.9 3 Este 6 Este 0 -- -- 98
2020-11-14 06:00:00 7.5 2 Este 5 Este 0 -- -- 98
2020-11-14 05:00:00 7.2 3 Este 9 Este 0 -- -- 98
2020-11-14 04:00:00 7 2 Este 4 Este 0.2 -- -- 97
2020-11-14 03:00:00 6.2 2 Sudoeste 6 Oeste 0 -- -- 97
2020-11-14 02:00:00 5.7 5 Oeste 6 Oeste 0 -- -- 97
2020-11-14 01:00:00 5.4 5 Sudoeste 9 Sudoeste 0 -- -- 96
2020-11-14 00:00:00 5.3 7 Sudoeste 9 Sudoeste 0 -- -- 95
2020-11-13 23:00:00 5.9 7 Sudoeste 8 Sudoeste 0 -- -- 95
2020-11-13 22:00:00 6.8 6 Sudoeste 9 Sudoeste 0 -- -- 94
2020-11-13 21:00:00 7.9 2 Oeste 4 Este 0 -- -- 93
2020-11-13 20:00:00 9 3 Este 4 Este 0 -- -- 92
2020-11-13 19:00:00 9.9 2 Este 5 Sudoeste 0 -- -- 90
2020-11-13 18:00:00 10.9 3 Oeste 9 Sudoeste 0 -- -- 88
2020-11-13 17:00:00 11.5 7 Oeste 10 Oeste 0 -- -- 85
2020-11-13 16:00:00 12.8 6 Sudoeste 10 Sudoeste 0 -- -- 80
2020-11-13 15:00:00 12.9 5 Oeste 11 Oeste 0 -- -- 80
2020-11-13 14:00:00 11.5 4 Oeste 11 Noroeste 0 -- -- 84
2020-11-13 13:00:00 11.2 3 Norte 10 Sudoeste 0 -- -- 86
2020-11-13 12:00:00 10.9 3 Este 8 Norte 0 -- -- 88
2020-11-13 11:00:00 10.5 3 Nordeste 8 Este 0 -- -- 90
2020-11-13 10:00:00 10.1 5 Sur 7 Sur 0 -- -- 93
2020-11-13 09:00:00 9.9 3 Sudeste 8 Este 0 -- -- 94
2020-11-13 08:00:00 9.7 2 Oeste 4 Oeste 0 -- -- 95
2020-11-13 07:00:00 9.7 3 Sudeste 6 Este 0 -- -- 95
2020-11-13 06:00:00 9.7 0 Calma 2 Noroeste 0 -- -- 95
2020-11-13 05:00:00 9.7 0 Calma 4 Nordeste 0 -- -- 95
2020-11-13 04:00:00 9.7 0 Calma 7 Norte 0 -- -- 94
2020-11-13 03:00:00 9.7 3 Nordeste 6 Nordeste 0 -- -- 93
2020-11-13 02:00:00 9.8 4 Nordeste 12 Nordeste 0 -- -- 92
2020-11-13 01:00:00 9.9 4 Nordeste 13 Nordeste 0 -- -- 92
2020-11-13 00:00:00 10.2 5 Este 12 Este 0 -- -- 91
2020-11-12 23:00:00 10.3 3 Este 6 Nordeste 0 -- -- 91
2020-11-12 22:00:00 10.2 0 Calma 10 Este 0 -- -- 90
2020-11-12 21:00:00 10.4 8 Este 15 Este 0 -- -- 89
2020-11-12 20:00:00 11.1 7 Este 13 Este 0 -- -- 87
2020-11-12 19:00:00 11.4 5 Este 12 Sudeste 0 -- -- 87
2020-11-12 18:00:00 11.5 4 Sur 5 Sur 0 -- -- 86
2020-11-12 17:00:00 11.6 2 Sudoeste 10 Sudeste 0 -- -- 85
2020-11-12 16:00:00 11.6 3 Sudeste 10 Sur 0 -- -- 85
2020-11-12 15:00:00 11.6 2 Noroeste 9 Este 0 -- -- 85
2020-11-12 14:00:00 11.4 3 Norte 6 Norte 0 -- -- 87
2020-11-12 13:00:00 11.2 3 Oeste 8 Norte 0 -- -- 89
2020-11-12 12:00:00 10.7 3 Sur 6 Este 0 -- -- 95
2020-11-12 11:00:00 10.2 0 Calma 6 Nordeste 0 -- -- 97
2020-11-12 10:00:00 9.8 3 Norte 8 Nordeste 0 -- -- 98
2020-11-12 09:00:00 9.3 0 Calma 6 Sudoeste 0 -- -- 98
2020-11-12 08:00:00 8.9 5 Sudoeste 9 Sudoeste 0 -- -- 98
2020-11-12 07:00:00 8.9 5 Sudoeste 10 Sudoeste 0 -- -- 98
2020-11-12 06:00:00 9.1 3 Sur 5 Sur 0 -- -- 98
2020-11-12 05:00:00 9 3 Sudoeste 8 Noroeste 0 -- -- 98
2020-11-12 04:00:00 9 3 Oeste 7 Norte 0 -- -- 97
2020-11-12 03:00:00 9 6 Norte 10 Noroeste 0 -- -- 97
2020-11-12 02:00:00 9.1 7 Noroeste 10 Noroeste 0 -- -- 97
2020-11-12 01:00:00 9.4 2 Norte 8 Norte 0 -- -- 97
2020-11-12 00:00:00 9 3 Norte 10 Este 0 -- -- 96
2020-11-11 23:00:00 8.9 6 Este 10 Este 0 -- -- 95
2020-11-11 22:00:00 10.2 6 Este 13 Este 0 -- -- 94
2020-11-11 21:00:00 10.6 3 Noroeste 5 Norte 0 -- -- 93
2020-11-11 20:00:00 10.6 3 Sur 10 Sudoeste 0 -- -- 92
2020-11-11 19:00:00 11 8 Sudoeste 11 Sudoeste 0 -- -- 91
2020-11-11 18:00:00 11.2 6 Sudoeste 10 Sur 0 -- -- 91
2020-11-11 17:00:00 11.8 5 Sudoeste 9 Sudoeste 0 -- -- 90
2020-11-11 16:00:00 11.8 3 Sudoeste 9 Sudeste 0 -- -- 90
2020-11-11 15:00:00 11.5 2 Sudeste 7 Sudeste 0 -- -- 92
2020-11-11 14:00:00 10.8 0 Calma 7 Sudeste 0 -- -- 96
2020-11-11 13:00:00 10.2 3 Este 9 Este 0 -- -- 97
2020-11-11 12:00:00 9.7 5 Sudeste 11 Este 0 -- -- 97
2020-11-11 11:00:00 9.2 2 Sudeste 8 Sur 0 -- -- 98
2020-11-11 10:00:00 8.8 6 Sur 9 Sudeste 0 -- -- 97
2020-11-11 09:00:00 8.5 5 Sudeste 9 Sur 0 -- -- 97
2020-11-11 08:00:00 8.3 3 Nordeste 10 Sudeste 0 -- -- 97
2020-11-11 07:00:00 8.3 5 Sudeste 8 Sudeste 0.2 -- -- 97
2020-11-11 06:00:00 8 0 Calma 2 Nordeste 0 -- -- 97
2020-11-11 05:00:00 7.5 2 Noroeste 3 Noroeste 0 -- -- 97
2020-11-11 04:00:00 7.3 0 Calma 4 Sudoeste 0 -- -- 96
2020-11-11 03:00:00 6.5 4 Sudoeste 8 Sudoeste 0 -- -- 96
2020-11-11 02:00:00 6 4 Sudeste 9 Sudoeste 0 -- -- 95
2020-11-11 01:00:00 6.4 0 Calma 4 Sudoeste 0 -- -- 93
2020-11-11 00:00:00 7.8 2 Sudeste 3 Este 0 -- -- 93
2020-11-10 23:00:00 9.1 0 Calma 6 Sudeste 0 -- -- 90
2020-11-10 22:00:00 10.4 3 Este 10 Este 0 -- -- 90
2020-11-10 21:00:00 11.3 6 Este 10 Este 0 -- -- 90
2020-11-10 20:00:00 11.8 3 Este 8 Este 0 -- -- 86
2020-11-10 19:00:00 13.2 6 Este 9 Este 0 -- -- 82
2020-11-10 18:00:00 15.9 4 Sudoeste 11 Oeste 0 -- -- 72
2020-11-10 17:00:00 18.2 8 Oeste 17 Oeste 0 -- -- 63
2020-11-10 16:00:00 18.4 10 Noroeste 21 Oeste 0 -- -- 61
2020-11-10 15:00:00 17.8 13 Noroeste 23 Noroeste 0 -- -- 63
2020-11-10 14:00:00 17.4 12 Noroeste 18 Noroeste 0 -- -- 64
2020-11-10 13:00:00 15.9 5 Norte 12 Norte 0 -- -- 70
2020-11-10 12:00:00 14.7 3 Nordeste 10 Nordeste 0 -- -- 74
2020-11-10 11:00:00 12.3 4 Noroeste 8 Noroeste 0 -- -- 82
2020-11-10 10:00:00 10.1 3 Este 5 Este 0 -- -- 95
2020-11-10 09:00:00 7.1 0 Calma 5 Este 0 -- -- 97
2020-11-10 08:00:00 5.2 3 Sudeste 7 Sudoeste 0 -- -- 97
2020-11-10 07:00:00 5.6 3 Este 5 Este 0 -- -- 95
2020-11-10 06:00:00 6.1 0 Calma 4 Sudoeste 0 -- -- 95
2020-11-10 05:00:00 6.3 4 Sudoeste 5 Sudoeste 0 -- -- 95
2020-11-10 04:00:00 7 3 Oeste 6 Oeste 0 -- -- 94
2020-11-10 03:00:00 7.4 6 Oeste 8 Sudoeste 0 -- -- 94
2020-11-10 02:00:00 7.7 8 Sudoeste 11 Sudoeste 0 -- -- 94
2020-11-10 01:00:00 8.2 2 Sudoeste 9 Sudoeste 0 -- -- 93
2020-11-10 00:00:00 8.8 5 Sudoeste 7 Sudoeste 0 -- -- 92
2020-11-09 23:00:00 9.8 0 Calma 6 Sur 0 -- -- 92
2020-11-09 22:00:00 10.4 2 Sudeste 8 Sudoeste 0 -- -- 91
2020-11-09 21:00:00 11.1 3 Oeste 5 Oeste 0 -- -- 89
2020-11-09 20:00:00 11.9 6 Sudoeste 12 Sudoeste 0 -- -- 87
2020-11-09 19:00:00 13 9 Sudoeste 11 Sudoeste 0 -- -- 83
2020-11-09 18:00:00 15.6 3 Sur 5 Sur 0 -- -- 75
2020-11-09 17:00:00 17.2 3 Norte 10 Norte 0 -- -- 67
2020-11-09 16:00:00 16.9 3 Oeste 6 Oeste 0 -- -- 71
2020-11-09 15:00:00 16.9 2 Oeste 8 Noroeste 0 -- -- 70
2020-11-09 14:00:00 16.9 3 Oeste 8 Noroeste 0 -- -- 73
2020-11-09 13:00:00 14.9 3 Este 11 Sudeste 0 -- -- 83
2020-11-09 12:00:00 11.4 3 Sudeste 10 Sudeste 0 -- -- 98
2020-11-09 11:00:00 9.9 6 Sudeste 15 Sudeste 0 -- -- 97
2020-11-09 10:00:00 8.7 4 Sudeste 9 Sudeste 0 -- -- 97
2020-11-09 09:00:00 8.1 4 Sudeste 8 Nordeste 0 -- -- 97
2020-11-09 08:00:00 8 3 Este 10 Sudeste 0 -- -- 96
2020-11-09 07:00:00 7.6 7 Sudeste 15 Sudeste 0 -- -- 96
2020-11-09 06:00:00 6 4 Sur 7 Sudoeste 0 -- -- 95
2020-11-09 05:00:00 7.1 0 Calma 6 Sur 0 -- -- 95
2020-11-09 04:00:00 6.9 6 Sur 9 Sur 0 -- -- 94
2020-11-09 03:00:00 7.9 4 Nordeste 9 Sudeste 0 -- -- 94
2020-11-09 02:00:00 7.6 4 Este 6 Este 0 -- -- 93
2020-11-09 01:00:00 8.1 5 Sudeste 9 Sudeste 0 -- -- 93
2020-11-09 00:00:00 8.4 4 Sur 5 Sudeste 0 -- -- 91
2020-11-08 23:00:00 9.1 4 Sudoeste 9 Sudoeste 0 -- -- 90
2020-11-08 22:00:00 10 5 Sudoeste 9 Norte 0 -- -- 89
2020-11-08 21:00:00 11.1 4 Sudeste 12 Sur 0 -- -- 87
2020-11-08 20:00:00 12.7 5 Sudoeste 10 Este 0 -- -- 81
2020-11-08 19:00:00 14.5 6 Sudeste 11 Sudeste 0 -- -- 74
2020-11-08 18:00:00 16 7 Sudeste 17 Este 0 -- -- 70
2020-11-08 17:00:00 18.3 9 Este 18 Este 0 -- -- 65
2020-11-08 16:00:00 18.9 12 Este 18 Este 0 -- -- 59
2020-11-08 15:00:00 18.8 11 Este 19 Este 0 -- -- 63
2020-11-08 14:00:00 17.4 5 Sudeste 9 Este 0 -- -- 76
2020-11-08 13:00:00 16.2 6 Nordeste 11 Este 0 -- -- 81
2020-11-08 12:00:00 13.8 5 Este 12 Sudeste 0 -- -- 86
2020-11-08 11:00:00 12.9 7 Sudeste 12 Sudeste 0 -- -- 90
2020-11-08 10:00:00 10.3 6 Sudeste 10 Este 0 -- -- 96
2020-11-08 09:00:00 8.1 0 Calma 4 Sudoeste 0 -- -- 98
2020-11-08 08:00:00 6.3 2 Sudoeste 7 Sudoeste 0 -- -- 96
2020-11-08 07:00:00 6.7 0 Calma 7 Oeste 0 -- -- 95
2020-11-08 06:00:00 7.5 2 Oeste 4 Sudoeste 0 -- -- 95
2020-11-08 05:00:00 8.8 2 Este 6 Este 0 -- -- 96
2020-11-08 04:00:00 9.3 2 Norte 11 Sudoeste 0 -- -- 95
2020-11-08 03:00:00 9.8 4 Sudeste 9 Oeste 0 -- -- 94
2020-11-08 02:00:00 10.7 5 Sudoeste 9 Sudoeste 0 -- -- 94
2020-11-08 01:00:00 11.2 3 Sudeste 9 Sur 0 -- -- 96
2020-11-08 00:00:00 12.1 0 Calma 8 Norte 0 -- -- 96
2020-11-07 23:00:00 12.5 4 Sudeste 6 Sudeste 0 -- -- 95
2020-11-07 22:00:00 12.9 3 Noroeste 7 Sur 0 -- -- 95
2020-11-07 21:00:00 13.2 3 Norte 6 Sudoeste 0 -- -- 94
2020-11-07 20:00:00 13.8 3 Nordeste 12 Sur 0 -- -- 93
2020-11-07 19:00:00 14.4 4 Sur 6 Sudeste 0 -- -- 91
2020-11-07 18:00:00 15.6 5 Sudeste 12 Este 0 -- -- 90
2020-11-07 17:00:00 16.1 5 Este 22 Oeste 0.8 -- -- 90
2020-11-07 16:00:00 16.5 6 Sudoeste 15 Oeste 0.6 -- -- 89
2020-11-07 15:00:00 17.1 2 Nordeste 13 Sudeste 0.2 -- -- 84
2020-11-07 14:00:00 17.5 9 Sudeste 14 Sudeste 0 -- -- 79
2020-11-07 13:00:00 16.6 7 Sudeste 20 Sudeste 0 -- -- 87
2020-11-07 12:00:00 15.1 12 Sudeste 25 Este 0.2 -- -- 93
2020-11-07 11:00:00 14.9 11 Sudeste 20 Sur 0 -- -- 93
2020-11-07 10:00:00 14.2 6 Este 14 Sudeste 2 -- -- 94
2020-11-07 09:00:00 14 9 Sudoeste 32 Sur 2.8 -- -- 89
2020-11-07 08:00:00 16 22 Sur 40 Este 5 -- -- 90
2020-11-07 07:00:00 16.6 21 Este 46 Este 0 -- -- 81
2020-11-07 06:00:00 16.7 24 Este 44 Este 0 -- -- 80
2020-11-07 05:00:00 16.6 19 Este 33 Este 0 -- -- 82
2020-11-07 04:00:00 16.7 12 Este 28 Este 0 -- -- 83
2020-11-07 03:00:00 16.6 10 Este 31 Nordeste 0 -- -- 84
2020-11-07 02:00:00 16.5 15 Este 31 Este 0 -- -- 83
2020-11-07 01:00:00 16.1 15 Este 25 Este 0 -- -- 84
2020-11-07 00:00:00 16.5 8 Este 22 Este 0 -- -- 84
2020-11-06 23:00:00 16.6 13 Este 30 Este 0 -- -- 83
2020-11-06 22:00:00 16.9 13 Este 27 Este 0 -- -- 82
2020-11-06 21:00:00 16.9 15 Este 32 Este 0 -- -- 82
2020-11-06 20:00:00 17.1 13 Este 31 Este 0 -- -- 82
2020-11-06 19:00:00 17.3 14 Este 32 Este 0 -- -- 81
2020-11-06 18:00:00 17.5 16 Este 35 Este 0 -- -- 80
2020-11-06 17:00:00 17.8 16 Este 32 Este 0 -- -- 79
2020-11-06 16:00:00 18.3 20 Este 37 Este 0 -- -- 76
2020-11-06 15:00:00 19.4 18 Este 38 Nordeste 0 -- -- 74
2020-11-06 14:00:00 18.8 18 Este 42 Este 0 -- -- 76
2020-11-06 13:00:00 19.1 22 Este 42 Este 0 -- -- 76
2020-11-06 12:00:00 17.5 15 Este 33 Este 0 -- -- 82
2020-11-06 11:00:00 16.9 12 Este 28 Este 0 -- -- 85
2020-11-06 10:00:00 15.5 12 Este 24 Este 0 -- -- 88
2020-11-06 09:00:00 14.1 6 Este 16 Este 0 -- -- 92
2020-11-06 08:00:00 13.5 3 Este 14 Este 0 -- -- 92
2020-11-06 07:00:00 13.4 9 Este 18 Este 0 -- -- 93
2020-11-06 06:00:00 13.2 10 Este 18 Sudeste 0 -- -- 93
2020-11-06 05:00:00 12.8 8 Este 15 Sudeste 0 -- -- 94
2020-11-06 04:00:00 12.4 9 Sudeste 17 Sudeste 0 -- -- 95
2020-11-06 03:00:00 12.2 3 Sudeste 9 Sudeste 0 -- -- 94
2020-11-06 02:00:00 12.4 4 Sudoeste 14 Sur 0 -- -- 94
2020-11-06 01:00:00 11.9 9 Sur 15 Sur 0 -- -- 95
2020-11-06 00:00:00 11.7 8 Sur 12 Sur 0.2 -- -- 95
2020-11-05 23:00:00 11.5 0 Calma 8 Este 1.4 -- -- 94
2020-11-05 22:00:00 11.6 3 Sur 10 Sudoeste 2 -- -- 93
2020-11-05 21:00:00 11.6 5 Sudoeste 9 Sudoeste 0.6 -- -- 91
2020-11-05 20:00:00 11.7 0 Calma 3 Norte 0 -- -- 90
2020-11-05 19:00:00 11.7 0 Calma 8 Sur 0 -- -- 90
2020-11-05 18:00:00 11.8 7 Sur 10 Sur 0 -- -- 89
2020-11-05 17:00:00 11.9 5 Sudoeste 10 Sudoeste 0 -- -- 87
2020-11-05 16:00:00 12.2 8 Sudoeste 12 Sudoeste 0 -- -- 86
2020-11-05 15:00:00 12.3 4 Este 9 Este 0 -- -- 84
2020-11-05 14:00:00 11.6 3 Oeste 8 Noroeste 0.2 -- -- 86
2020-11-05 13:00:00 11 3 Oeste 8 Norte 0 -- -- 87
2020-11-05 12:00:00 10.3 4 Norte 10 Norte 0 -- -- 89
2020-11-05 11:00:00 9.9 5 Este 9 Este 0 -- -- 90
2020-11-05 10:00:00 9.7 6 Este 13 Este 0 -- -- 91
2020-11-05 09:00:00 9.5 8 Este 13 Este 0 -- -- 92
2020-11-05 08:00:00 9.3 3 Nordeste 6 Este 0 -- -- 93
2020-11-05 07:00:00 9.3 0 Calma 4 Sur 0 -- -- 92
2020-11-05 06:00:00 9.3 3 Sudoeste 6 Sudoeste 0 -- -- 92
2020-11-05 05:00:00 9.2 0 Calma 7 Oeste 0 -- -- 91
2020-11-05 04:00:00 9.3 4 Sudoeste 7 Oeste 0 -- -- 92
2020-11-05 03:00:00 9.4 4 Sur 5 Sur 0 -- -- 92
2020-11-05 02:00:00 9.3 0 Calma 6 Este 0 -- -- 91
2020-11-05 01:00:00 9.3 2 Este 7 Noroeste 0 -- -- 91
2020-11-05 00:00:00 9.2 4 Noroeste 6 Noroeste 0 -- -- 92
2020-11-04 23:00:00 9.3 3 Noroeste 6 Norte 0 -- -- 93
2020-11-04 22:00:00 9.2 4 Norte 6 Norte 0 -- -- 93
2020-11-04 21:00:00 9.2 0 Calma 2 Este 0 -- -- 92
2020-11-04 20:00:00 9.1 0 Calma 6 Sudeste 0 -- -- 91
2020-11-04 19:00:00 9.1 5 Sudeste 7 Sudeste 0 -- -- 91
2020-11-04 18:00:00 9.1 3 Sudeste 5 Sur 0.2 -- -- 88
2020-11-04 17:00:00 9.3 4 Sur 7 Sudeste 0.6 -- -- 88
2020-11-04 16:00:00 9.6 5 Sudeste 8 Sudeste 0.6 -- -- 86
2020-11-04 15:00:00 9.9 2 Este 6 Este 0.6 -- -- 82
2020-11-04 14:00:00 10.3 4 Este 7 Este 0 -- -- 76
2020-11-04 13:00:00 10.3 3 Norte 8 Noroeste 0 -- -- 77
2020-11-04 12:00:00 10 4 Norte 14 Oeste 0 -- -- 76
2020-11-04 11:00:00 9.6 9 Noroeste 14 Oeste 0 -- -- 77
2020-11-04 10:00:00 9.2 7 Sudoeste 11 Sudoeste 0.4 -- -- 81
2020-11-04 09:00:00 9.4 7 Oeste 12 Oeste 0 -- -- 73
2020-11-04 08:00:00 9.4 7 Oeste 23 Oeste 0 -- -- 72
2020-11-04 07:00:00 9.5 12 Oeste 24 Noroeste 0 -- -- 72
2020-11-04 06:00:00 9.6 9 Oeste 19 Oeste 0 -- -- 72
2020-11-04 05:00:00 9.7 12 Oeste 22 Oeste 0 -- -- 72
2020-11-04 04:00:00 9.8 9 Oeste 20 Noroeste 0 -- -- 73
2020-11-04 03:00:00 9.7 14 Noroeste 35 Oeste 0.4 -- -- 77
2020-11-04 02:00:00 10.3 22 Noroeste 45 Oeste 0 -- -- 72
2020-11-04 01:00:00 11.4 24 Noroeste 44 Oeste 0 -- -- 65
2020-11-04 00:00:00 11.5 24 Noroeste 40 Oeste 0 -- -- 67
2020-11-03 23:00:00 11.8 23 Oeste 44 Oeste 0 -- -- 68
2020-11-03 22:00:00 12.3 27 Noroeste 53 Noroeste 0 -- -- 68
2020-11-03 21:00:00 12.9 29 Noroeste 49 Noroeste 0 -- -- 67
2020-11-03 20:00:00 13.4 27 Noroeste 44 Noroeste 0 -- -- 70
2020-11-03 19:00:00 14.1 23 Noroeste 42 Oeste 0 -- -- 68
2020-11-03 18:00:00 14.2 18 Oeste 39 Oeste 0 -- -- 68
2020-11-03 17:00:00 14.6 23 Noroeste 41 Oeste 0 -- -- 64
2020-11-03 16:00:00 14.6 22 Noroeste 40 Oeste 0 -- -- 65
2020-11-03 15:00:00 14.9 25 Oeste 45 Noroeste 0 -- -- 67
2020-11-03 14:00:00 15.1 22 Oeste 38 Oeste 0 -- -- 68
2020-11-03 13:00:00 14.1 26 Noroeste 49 Noroeste 0 -- -- 75
2020-11-03 12:00:00 14.4 30 Noroeste 50 Noroeste 0 -- -- 73
2020-11-03 11:00:00 14.9 25 Noroeste 43 Oeste 0 -- -- 72
2020-11-03 10:00:00 15.4 17 Noroeste 37 Oeste 0 -- -- 70
2020-11-03 09:00:00 14.6 15 Oeste 29 Oeste 0 -- -- 74
2020-11-03 08:00:00 14.3 10 Oeste 17 Oeste 0 -- -- 75
2020-11-03 07:00:00 14.1 8 Oeste 21 Noroeste 0 -- -- 76
2020-11-03 06:00:00 13.9 8 Oeste 15 Noroeste 0 -- -- 79
2020-11-03 05:00:00 14.5 7 Noroeste 15 Oeste 0.2 -- -- 80
2020-11-03 04:00:00 14.5 8 Noroeste 14 Norte 0 -- -- 80
2020-11-03 03:00:00 15 9 Noroeste 14 Noroeste 0.2 -- -- 80
2020-11-03 02:00:00 15.8 5 Norte 12 Noroeste 0 -- -- 78
2020-11-03 01:00:00 16 7 Noroeste 12 Noroeste 0 -- -- 76
2020-11-03 00:00:00 16 5 Noroeste 8 Noroeste 0 -- -- 75
2020-11-02 23:00:00 15.9 2 Norte 4 Norte 0 -- -- 74
2020-11-02 22:00:00 17 2 Este 7 Este 0 -- -- 69
2020-11-02 21:00:00 18.3 4 Nordeste 8 Noroeste 0 -- -- 66
2020-11-02 20:00:00 20.1 6 Noroeste 15 Oeste 0 -- -- 59
2020-11-02 19:00:00 20.4 2 Norte 9 Oeste 0 -- -- 55
2020-11-02 18:00:00 22.6 6 Oeste 9 Oeste 0 -- -- 49
2020-11-02 17:00:00 25 6 Noroeste 13 Noroeste 0 -- -- 42
2020-11-02 16:00:00 25.7 8 Noroeste 13 Norte 0 -- -- 39
2020-11-02 15:00:00 25.2 5 Noroeste 10 Norte 0 -- -- 37
2020-11-02 14:00:00 24 4 Norte 9 Norte 0 -- -- 43
2020-11-02 13:00:00 22.4 3 Nordeste 8 Este 0 -- -- 42
2020-11-02 12:00:00 20 4 Este 9 Este 0 -- -- 51
2020-11-02 11:00:00 16.7 5 Este 9 Este 0 -- -- 62
2020-11-02 10:00:00 13.1 2 Nordeste 5 Nordeste 0 -- -- 71
2020-11-02 09:00:00 9.9 0 Calma 4 Sudoeste 0 -- -- 80
2020-11-02 08:00:00 6.6 3 Sudoeste 6 Sudoeste 0 -- -- 85
2020-11-02 07:00:00 6.6 2 Sur 5 Sudoeste 0 -- -- 87
2020-11-02 06:00:00 6.7 3 Sudoeste 6 Sudoeste 0 -- -- 83
2020-11-02 05:00:00 7.4 5 Sudoeste 8 Sudoeste 0 -- -- 84
2020-11-02 04:00:00 8.4 0 Calma 5 Sudeste 0 -- -- 80
2020-11-02 03:00:00 8.7 4 Sudoeste 8 Sudoeste 0 -- -- 80
2020-11-02 02:00:00 9.7 0 Calma 6 Este 0 -- -- 76
2020-11-02 01:00:00 10.2 0 Calma 7 Sudoeste 0 -- -- 75
2020-11-02 00:00:00 11.4 3 Sur 10 Este 0 -- -- 71
2020-11-01 23:00:00 12.5 0 Calma 6 Sudeste 0 -- -- 68
2020-11-01 22:00:00 13.7 3 Nordeste 5 Este 0 -- -- 65
2020-11-01 21:00:00 14.9 4 Este 9 Sur 0 -- -- 62
2020-11-01 20:00:00 16 6 Sur 10 Sudoeste 0 -- -- 56
2020-11-01 19:00:00 17.8 3 Sur 9 Sur 0 -- -- 53
2020-11-01 18:00:00 20.7 4 Sudoeste 8 Noroeste 0 -- -- 46
2020-11-01 17:00:00 23.1 4 Noroeste 14 Noroeste 0 -- -- 43
2020-11-01 16:00:00 23.8 11 Noroeste 19 Noroeste 0 -- -- 41
2020-11-01 15:00:00 23.3 14 Noroeste 21 Noroeste 0 -- -- 46
2020-11-01 14:00:00 21.5 12 Noroeste 18 Noroeste 0 -- -- 53
2020-11-01 13:00:00 19.2 7 Norte 11 Norte 0 -- -- 58
2020-11-01 12:00:00 17.3 5 Norte 10 Noroeste 0 -- -- 62
2020-11-01 11:00:00 14 4 Noroeste 8 Noroeste 0 -- -- 71
2020-11-01 10:00:00 10.4 4 Norte 9 Noroeste 0 -- -- 81
2020-11-01 09:00:00 7.8 2 Noroeste 6 Noroeste 0 -- -- 89
2020-11-01 08:00:00 5.3 0 Calma 6 Sudoeste 0 -- -- 92
2020-11-01 07:00:00 5 4 Sudoeste 6 Sudoeste 0 -- -- 90
2020-11-01 06:00:00 5.5 3 Oeste 5 Oeste 0 -- -- 89
2020-11-01 05:00:00 6.3 0 Calma 8 Este 0 -- -- 89
2020-11-01 04:00:00 6.5 3 Sudoeste 7 Sur 0 -- -- 86
2020-11-01 03:00:00 6.8 5 Sudoeste 8 Sudoeste 0 -- -- 86
2020-11-01 02:00:00 7.5 5 Sudoeste 7 Sudoeste 0 -- -- 83
2020-11-01 01:00:00 8.6 6 Sudoeste 8 Sur 0 -- -- 81
2020-11-01 00:00:00 9.8 4 Nordeste 6 Nordeste 0 -- -- 81
2020-10-31 23:00:00 10.2 2 Sudoeste 5 Sudoeste 0 -- -- 79
2020-10-31 22:00:00 11 3 Sudoeste 8 Oeste 0 -- -- 74
2020-10-31 21:00:00 12.9 5 Sudoeste 7 Sudoeste 0 -- -- 68
2020-10-31 20:00:00 15.3 0 Calma 14 Oeste 0 -- -- 62
2020-10-31 19:00:00 16.8 6 Sur 10 Sudoeste 0 -- -- 58
2020-10-31 18:00:00 20.6 4 Oeste 6 Oeste 0 -- -- 50
2020-10-31 17:00:00 22.7 3 Nordeste 6 Nordeste 0 -- -- 46
2020-10-31 16:00:00 23.4 3 Sudoeste 7 Norte 0 -- -- 41
2020-10-31 15:00:00 21.6 3 Norte 9 Nordeste 0 -- -- 46
2020-10-31 14:00:00 20.1 3 Nordeste 8 Noroeste 0 -- -- 50
2020-10-31 13:00:00 18.2 4 Norte 9 Noroeste 0 -- -- 55
2020-10-31 12:00:00 15.2 4 Oeste 10 Noroeste 0 -- -- 65
2020-10-31 11:00:00 11.8 4 Noroeste 9 Noroeste 0 -- -- 77
2020-10-31 10:00:00 8.7 5 Norte 8 Noroeste 0 -- -- 85
2020-10-31 09:00:00 6.1 3 Sudoeste 8 Sudoeste 0 -- -- 94
2020-10-31 08:00:00 3 6 Sudoeste 8 Sudoeste 0 -- -- 92
2020-10-31 07:00:00 3.5 0 Calma 3 Oeste 0 -- -- 92
2020-10-31 06:00:00 3.6 3 Oeste 6 Sudoeste 0 -- -- 91
2020-10-31 05:00:00 3.9 2 Sur 4 Sudeste 0 -- -- 90
2020-10-31 04:00:00 4.5 2 Sur 5 Sudoeste 0 -- -- 89
2020-10-31 03:00:00 5.4 4 Sudoeste 6 Sudoeste 0 -- -- 86
2020-10-31 02:00:00 6.1 3 Sudeste 6 Sudoeste 0 -- -- 88
2020-10-31 01:00:00 6.7 4 Sudoeste 8 Sudoeste 0 -- -- 84
2020-10-31 00:00:00 7.8 5 Sudoeste 6 Sudoeste 0 -- -- 82
2020-10-30 23:00:00 8.4 4 Sudoeste 8 Sur 0 -- -- 80
2020-10-30 22:00:00 9.5 6 Oeste 9 Sudoeste 0 -- -- 76
2020-10-30 21:00:00 11.4 4 Sur 8 Sudoeste 0 -- -- 73
2020-10-30 20:00:00 12.9 2 Sur 11 Sudoeste 0 -- -- 67
2020-10-30 19:00:00 15.1 3 Sur 8 Sudoeste 0 -- -- 62
2020-10-30 18:00:00 19.9 6 Sudoeste 8 Sudoeste 0 -- -- 51
2020-10-30 17:00:00 22.8 4 Sudoeste 6 Oeste 0 -- -- 44
2020-10-30 16:00:00 22.1 3 Norte 7 Nordeste 0 -- -- 47
2020-10-30 15:00:00 21.6 3 Norte 8 Norte 0 -- -- 48
2020-10-30 14:00:00 20.2 3 Oeste 10 Norte 0 -- -- 52
2020-10-30 13:00:00 18 4 Norte 12 Noroeste 0 -- -- 61
2020-10-30 12:00:00 15.3 8 Noroeste 13 Norte 0 -- -- 69
2020-10-30 11:00:00 12.3 3 Norte 6 Norte 0 -- -- 77
2020-10-30 10:00:00 9.3 4 Norte 6 Norte 0 -- -- 89
2020-10-30 09:00:00 6.2 2 Sur 8 Sudoeste 0 -- -- 96
2020-10-30 08:00:00 3.4 6 Sudoeste 8 Sudoeste 0 -- -- 93
2020-10-30 07:00:00 3.9 3 Sudoeste 5 Sudoeste 0 -- -- 92
2020-10-30 06:00:00 4.8 2 Sudeste 10 Sudoeste 0 -- -- 92
2020-10-30 05:00:00 4.8 7 Sudoeste 10 Sudoeste 0 -- -- 91
2020-10-30 04:00:00 5.2 4 Sudoeste 6 Sudoeste 0 -- -- 89
2020-10-30 03:00:00 5.9 5 Sudoeste 7 Sudoeste 0 -- -- 88
2020-10-30 02:00:00 6.3 0 Calma 7 Sudoeste 0 -- -- 86
2020-10-30 01:00:00 7.5 4 Sudoeste 5 Sudoeste 0 -- -- 84
2020-10-30 00:00:00 8.3 4 Sudoeste 8 Sudoeste 0 -- -- 82